createdAt,value
2018-06-21T00:00:24.896Z,18.80
2018-06-21T00:02:56.088Z,18.70
2018-06-21T00:05:26.990Z,18.60
2018-06-21T00:07:58.008Z,18.50
2018-06-21T00:10:28.402Z,18.40
2018-06-21T00:13:00.125Z,18.50
2018-06-21T00:15:30.711Z,18.50
2018-06-21T00:18:01.205Z,18.60
2018-06-21T00:20:32.081Z,18.60
2018-06-21T00:23:02.545Z,18.60
2018-06-21T00:25:32.887Z,18.60
2018-06-21T00:28:03.676Z,18.60
2018-06-21T00:30:34.213Z,18.50
2018-06-21T00:33:04.713Z,18.50
2018-06-21T00:35:34.952Z,18.50
2018-06-21T00:38:05.449Z,18.40
2018-06-21T00:40:35.882Z,18.40
2018-06-21T00:43:06.426Z,18.40
2018-06-21T00:45:37.002Z,18.30
2018-06-21T00:48:07.409Z,18.30
2018-06-21T00:50:38.234Z,18.30
2018-06-21T00:53:08.673Z,18.30
2018-06-21T00:55:49.855Z,18.20
2018-06-21T00:58:20.132Z,18.20
2018-06-21T01:00:50.900Z,18.20
2018-06-21T01:03:21.895Z,18.10
2018-06-21T01:05:52.329Z,18.00
2018-06-21T01:08:22.878Z,18.00
2018-06-21T01:10:53.519Z,18.00
2018-06-21T01:13:24.085Z,18.00
2018-06-21T01:15:54.749Z,18.00
2018-06-21T01:18:27.180Z,18.00
2018-06-21T01:20:58.101Z,17.90
2018-06-21T01:23:28.604Z,17.90
2018-06-21T01:25:59.423Z,17.70
2018-06-21T01:28:29.889Z,17.70
2018-06-21T01:31:00.689Z,17.60
2018-06-21T01:33:31.255Z,17.60
2018-06-21T01:36:02.141Z,17.50
2018-06-21T01:38:33.636Z,17.50
2018-06-21T01:41:04.174Z,17.50
2018-06-21T01:43:34.774Z,17.50
2018-06-21T01:46:05.332Z,17.50
2018-06-21T01:48:35.970Z,17.60
2018-06-21T01:51:07.089Z,17.60
2018-06-21T01:53:37.532Z,17.60
2018-06-21T01:56:08.427Z,17.60
2018-06-21T01:58:39.211Z,17.50
2018-06-21T02:01:10.076Z,17.50
2018-06-21T02:03:40.670Z,17.50
2018-06-21T02:06:11.282Z,17.50
2018-06-21T02:08:42.235Z,17.40
2018-06-21T02:11:13.246Z,17.40
2018-06-21T02:13:44.188Z,17.40
2018-06-21T02:16:14.852Z,17.40
2018-06-21T02:18:45.587Z,17.40
2018-06-21T02:21:16.009Z,17.30
2018-06-21T02:23:46.708Z,17.30
2018-06-21T02:26:17.123Z,17.30
2018-06-21T02:28:47.367Z,17.30
2018-06-21T02:31:17.986Z,17.20
2018-06-21T02:33:49.157Z,17.20
2018-06-21T02:36:20.967Z,17.10
2018-06-21T02:38:51.269Z,17.10
2018-06-21T02:41:22.012Z,17.20
2018-06-21T02:43:52.911Z,17.20
2018-06-21T02:46:23.443Z,17.20
2018-06-21T02:48:53.824Z,17.30
2018-06-21T02:51:24.399Z,17.20
2018-06-21T02:53:55.356Z,17.20
2018-06-21T02:56:25.824Z,17.20
2018-06-21T02:58:56.332Z,17.10
2018-06-21T03:01:26.717Z,17.20
2018-06-21T03:03:57.886Z,17.20
2018-06-21T03:06:28.008Z,17.10
2018-06-21T03:08:58.392Z,17.10
2018-06-21T03:11:29.164Z,17.00
2018-06-21T03:13:59.524Z,17.00
2018-06-21T03:16:29.896Z,17.00
2018-06-21T03:19:00.455Z,17.00
2018-06-21T03:21:31.065Z,17.10
2018-06-21T03:24:01.283Z,17.00
2018-06-21T03:26:31.763Z,17.00
2018-06-21T03:31:31.634Z,17.00
2018-06-21T03:34:02.078Z,17.00
2018-06-21T03:36:33.012Z,17.00
2018-06-21T03:39:03.441Z,17.00
2018-06-21T03:41:33.664Z,17.00
2018-06-21T03:44:04.114Z,17.10
2018-06-21T03:46:34.957Z,17.10
2018-06-21T03:49:05.710Z,17.10
2018-06-21T03:51:36.697Z,17.10
2018-06-21T03:54:08.340Z,17.20
2018-06-21T03:56:38.969Z,17.10
2018-06-21T03:59:09.547Z,17.10
2018-06-21T04:01:42.509Z,17.10
2018-06-21T04:04:13.392Z,17.20
2018-06-21T04:06:44.138Z,17.10
2018-06-21T04:09:14.991Z,17.20
2018-06-21T04:11:46.203Z,17.20
2018-06-21T04:14:17.073Z,17.30
2018-06-21T04:16:47.603Z,17.30
2018-06-21T04:19:18.676Z,17.30
2018-06-21T04:21:51.494Z,17.30
2018-06-21T04:24:22.294Z,17.30
2018-06-21T04:26:52.869Z,17.30
2018-06-21T04:29:23.482Z,17.30
2018-06-21T04:31:54.297Z,17.30
2018-06-21T04:34:27.814Z,17.30
2018-06-21T04:37:03.176Z,17.40
2018-06-21T04:39:34.797Z,17.40
2018-06-21T04:42:05.409Z,17.40
2018-06-21T04:44:36.418Z,17.40
2018-06-21T04:47:06.977Z,17.40
2018-06-21T04:49:37.984Z,17.40
2018-06-21T04:52:08.576Z,17.40
2018-06-21T04:54:39.399Z,17.40
2018-06-21T04:57:10.317Z,17.40
2018-06-21T04:59:40.822Z,17.30
2018-06-21T05:02:11.548Z,17.20
2018-06-21T05:04:42.080Z,17.20
2018-06-21T05:07:14.661Z,17.20
2018-06-21T05:09:45.629Z,17.20
2018-06-21T05:12:16.247Z,17.20
2018-06-21T05:14:48.618Z,17.20
2018-06-21T05:17:18.997Z,17.20
2018-06-21T05:19:49.806Z,17.20
2018-06-21T05:22:20.453Z,17.30
2018-06-21T05:24:51.219Z,17.30
2018-06-21T05:27:21.808Z,17.30
2018-06-21T05:32:22.887Z,17.30
2018-06-21T05:34:54.014Z,17.40
2018-06-21T05:37:25.153Z,17.40
2018-06-21T05:39:55.906Z,17.40
2018-06-21T05:42:26.595Z,17.40
2018-06-21T05:44:57.201Z,17.30
2018-06-21T05:47:27.710Z,17.20
2018-06-21T05:49:58.078Z,17.10
2018-06-21T05:52:29.060Z,17.00
2018-06-21T05:55:00.015Z,17.00
2018-06-21T05:57:30.974Z,17.00
2018-06-21T06:00:01.568Z,16.90
2018-06-21T06:02:32.568Z,16.90
2018-06-21T06:05:03.541Z,16.90
2018-06-21T06:07:34.214Z,16.80
2018-06-21T06:10:05.006Z,16.80
2018-06-21T06:12:35.785Z,16.70
2018-06-21T06:17:36.528Z,16.70
2018-06-21T06:20:07.161Z,16.80
2018-06-21T06:22:39.142Z,16.70
2018-06-21T06:25:10.381Z,16.60
2018-06-21T06:27:41.043Z,16.60
2018-06-21T06:30:12.981Z,16.70
2018-06-21T06:32:43.731Z,16.70
2018-06-21T06:35:14.314Z,16.70
2018-06-21T06:37:44.547Z,16.70
2018-06-21T06:40:15.029Z,16.70
2018-06-21T06:42:45.605Z,16.60
2018-06-21T06:45:15.910Z,16.70
2018-06-21T06:47:46.675Z,16.70
2018-06-21T06:52:47.597Z,16.60
2018-06-21T06:55:18.214Z,16.60
2018-06-21T06:57:48.823Z,16.60
2018-06-21T07:00:19.782Z,16.60
2018-06-21T07:02:50.559Z,16.50
2018-06-21T07:05:21.440Z,16.50
2018-06-21T07:10:23.087Z,16.40
2018-06-21T07:12:53.914Z,16.20
2018-06-21T07:15:24.994Z,16.10
2018-06-21T07:17:55.374Z,16.10
2018-06-21T07:20:25.785Z,16.10
2018-06-21T07:22:56.519Z,16.20
2018-06-21T07:25:27.410Z,16.20
2018-06-21T07:27:58.163Z,16.20
2018-06-21T07:30:28.594Z,16.40
2018-06-21T07:32:59.388Z,16.50
2018-06-21T07:35:30.402Z,16.60
2018-06-21T07:38:01.205Z,16.60
2018-06-21T07:40:32.006Z,16.80
2018-06-21T07:43:02.493Z,16.90
2018-06-21T07:45:32.718Z,17.00
2018-06-21T07:48:03.405Z,17.10
2018-06-21T07:50:33.983Z,17.20
2018-06-21T07:53:04.733Z,17.20
2018-06-21T07:55:35.137Z,17.20
2018-06-21T07:58:05.681Z,17.20
2018-06-21T08:00:36.731Z,17.30
2018-06-21T08:03:07.317Z,17.40
2018-06-21T08:05:38.068Z,17.30
2018-06-21T08:08:09.037Z,17.40
2018-06-21T08:10:39.889Z,17.40
2018-06-21T08:13:10.341Z,17.60
2018-06-21T08:15:41.210Z,17.50
2018-06-21T08:18:11.837Z,17.40
2018-06-21T08:20:42.437Z,17.40
2018-06-21T08:23:13.150Z,17.30
2018-06-21T08:25:43.675Z,17.30
2018-06-21T08:30:44.002Z,17.60
2018-06-21T08:33:14.609Z,17.50
2018-06-21T08:35:45.271Z,17.40
2018-06-21T08:38:16.235Z,17.20
2018-06-21T08:40:47.059Z,17.20
2018-06-21T08:43:17.658Z,16.90
2018-06-21T08:45:48.162Z,16.80
2018-06-21T08:48:18.700Z,16.90
2018-06-21T08:50:49.050Z,17.10
2018-06-21T08:53:20.044Z,17.50
2018-06-21T08:55:50.893Z,17.80
2018-06-21T08:58:21.611Z,17.90
2018-06-21T09:00:52.250Z,18.00
2018-06-21T09:03:23.398Z,18.10
2018-06-21T09:05:53.920Z,18.10
2018-06-21T09:08:24.664Z,18.10
2018-06-21T09:10:55.445Z,17.90
2018-06-21T09:13:35.716Z,17.70
2018-06-21T09:16:07.789Z,17.60
2018-06-21T09:18:38.737Z,17.50
2018-06-21T09:21:09.505Z,17.30
2018-06-21T09:23:40.415Z,17.20
2018-06-21T09:26:11.061Z,17.20
2018-06-21T09:28:41.790Z,17.10
2018-06-21T09:31:12.156Z,16.80
2018-06-21T09:33:42.834Z,16.60
2018-06-21T09:36:13.384Z,16.60
2018-06-21T09:38:50.200Z,16.70
2018-06-21T09:41:25.967Z,16.70
2018-06-21T09:44:04.256Z,16.60
2018-06-21T09:46:37.965Z,16.80
2018-06-21T09:49:08.433Z,17.30
2018-06-21T09:51:38.910Z,17.50
2018-06-21T09:56:39.491Z,18.20
2018-06-21T09:59:10.498Z,18.40
2018-06-21T10:01:41.197Z,18.30
2018-06-21T10:04:11.839Z,17.80
2018-06-21T10:06:43.016Z,17.50
2018-06-21T10:09:13.577Z,17.30
2018-06-21T10:11:44.334Z,17.10
2018-06-21T10:14:15.789Z,17.30
2018-06-21T10:16:46.490Z,17.50
2018-06-21T10:19:17.121Z,17.90
2018-06-21T10:21:48.242Z,18.30
2018-06-21T10:24:18.504Z,18.50
2018-06-21T10:26:49.277Z,18.90
2018-06-21T10:29:20.033Z,19.30
2018-06-21T10:31:50.819Z,19.50
2018-06-21T10:34:21.466Z,19.80
2018-06-21T10:36:52.314Z,20.00
2018-06-21T10:39:22.966Z,20.10
2018-06-21T10:41:53.590Z,19.80
2018-06-21T10:44:24.192Z,19.40
2018-06-21T10:46:55.012Z,19.00
2018-06-21T10:49:25.455Z,18.60
2018-06-21T10:51:56.422Z,18.20
2018-06-21T10:54:27.137Z,18.00
2018-06-21T10:56:57.607Z,18.50
2018-06-21T10:59:28.157Z,19.00
2018-06-21T11:01:59.208Z,19.20
2018-06-21T11:04:29.926Z,19.30
2018-06-21T11:07:00.490Z,19.80
2018-06-21T11:09:31.151Z,20.50
2018-06-21T11:12:01.861Z,20.80
2018-06-21T11:14:32.357Z,20.50
2018-06-21T11:17:03.016Z,20.30
2018-06-21T11:19:33.410Z,20.60
2018-06-21T11:22:04.029Z,20.80
2018-06-21T11:24:34.960Z,20.90
2018-06-21T11:27:05.703Z,20.80
2018-06-21T11:29:36.347Z,21.10
2018-06-21T11:32:06.884Z,20.90
2018-06-21T11:34:37.225Z,20.80
2018-06-21T11:37:08.321Z,21.20
2018-06-21T11:39:38.887Z,21.40
2018-06-21T11:44:39.891Z,20.60
2018-06-21T11:47:10.734Z,20.40
2018-06-21T11:49:41.450Z,20.30
2018-06-21T11:52:12.555Z,20.50
2018-06-21T11:54:43.670Z,20.80
2018-06-21T11:57:14.302Z,20.80
2018-06-21T11:59:45.173Z,20.90
2018-06-21T12:02:15.833Z,20.80
2018-06-21T12:04:47.091Z,20.80
2018-06-21T12:07:18.071Z,21.10
2018-06-21T12:09:49.111Z,21.20
2018-06-21T12:12:19.346Z,21.00
2018-06-21T12:14:50.114Z,20.80
2018-06-21T12:17:22.902Z,20.80
2018-06-21T12:19:53.433Z,20.60
2018-06-21T12:22:24.002Z,20.30
2018-06-21T12:24:55.560Z,20.30
2018-06-21T12:27:26.191Z,20.10
2018-06-21T12:29:56.922Z,19.90
2018-06-21T12:32:27.714Z,19.70
2018-06-21T12:34:58.225Z,19.30
2018-06-21T12:37:28.976Z,19.00
2018-06-21T12:42:31.263Z,18.60
2018-06-21T12:45:01.665Z,18.50
2018-06-21T12:47:32.399Z,18.60
2018-06-21T12:50:03.209Z,19.10
2018-06-21T12:52:34.065Z,19.50
2018-06-21T12:55:04.906Z,19.80
2018-06-21T12:57:36.022Z,20.20
2018-06-21T13:00:06.939Z,20.30
2018-06-21T13:02:37.601Z,20.40
2018-06-21T13:05:08.513Z,20.40
2018-06-21T13:07:39.490Z,20.70
2018-06-21T13:10:21.137Z,20.60
2018-06-21T13:13:08.674Z,20.20
2018-06-21T13:15:39.648Z,20.10
2018-06-21T13:18:10.465Z,20.20
2018-06-21T13:20:41.072Z,20.20
2018-06-21T13:23:11.813Z,20.10
2018-06-21T13:25:42.634Z,20.10
2018-06-21T13:28:13.533Z,20.40
2018-06-21T13:30:44.158Z,20.70
2018-06-21T13:33:14.449Z,20.90
2018-06-21T13:35:46.165Z,20.50
2018-06-21T13:38:16.462Z,20.10
2018-06-21T13:40:47.269Z,20.20
2018-06-21T13:43:17.879Z,20.20
2018-06-21T13:45:48.684Z,20.40
2018-06-21T13:48:21.009Z,20.20
2018-06-21T13:50:51.462Z,20.40
2018-06-21T13:53:22.218Z,20.60
2018-06-21T13:55:52.857Z,20.20
2018-06-21T13:58:23.800Z,19.70
2018-06-21T14:00:55.064Z,19.10
2018-06-21T14:03:25.699Z,18.60
2018-06-21T14:05:56.514Z,19.00
2018-06-21T14:08:27.252Z,19.60
2018-06-21T14:10:58.753Z,19.70
2018-06-21T14:13:29.684Z,19.50
2018-06-21T14:16:00.326Z,19.60
2018-06-21T14:18:32.513Z,19.50
2018-06-21T14:21:03.143Z,19.10
2018-06-21T14:23:33.704Z,19.10
2018-06-21T14:26:05.154Z,19.20
2018-06-21T14:28:36.080Z,19.00
2018-06-21T14:31:06.605Z,19.30
2018-06-21T14:33:37.293Z,19.30
2018-06-21T14:36:08.022Z,19.40
2018-06-21T14:38:38.814Z,19.80
2018-06-21T14:41:09.510Z,19.80
2018-06-21T14:43:40.350Z,19.60
2018-06-21T14:46:10.798Z,19.70
2018-06-21T14:48:41.432Z,19.70
2018-06-21T14:51:12.087Z,19.50
2018-06-21T14:53:42.697Z,19.30
2018-06-21T14:56:13.663Z,18.90
2018-06-21T14:58:45.327Z,18.50
2018-06-21T15:01:15.901Z,18.50
2018-06-21T15:03:46.630Z,18.40
2018-06-21T15:06:17.353Z,18.30
2018-06-21T15:08:48.608Z,17.90
2018-06-21T15:11:19.451Z,17.30
2018-06-21T15:13:51.683Z,17.10
2018-06-21T15:16:23.428Z,16.90
2018-06-21T15:18:54.170Z,16.70
2018-06-21T15:21:24.799Z,16.80
2018-06-21T15:23:55.510Z,16.80
2018-06-21T15:26:26.425Z,16.80
2018-06-21T15:28:57.066Z,17.00
2018-06-21T15:31:27.941Z,17.30
2018-06-21T15:33:58.872Z,17.80
2018-06-21T15:36:29.509Z,18.20
2018-06-21T15:39:00.554Z,18.40
2018-06-21T15:41:33.133Z,18.40
2018-06-21T15:44:03.834Z,18.30
2018-06-21T15:46:34.421Z,18.50
2018-06-21T15:49:05.229Z,18.70
2018-06-21T15:51:35.940Z,18.60
2018-06-21T15:54:08.646Z,18.40
2018-06-21T15:56:40.258Z,18.10
2018-06-21T15:59:11.344Z,17.80
2018-06-21T16:01:41.765Z,17.80
2018-06-21T16:04:12.380Z,17.70
2018-06-21T16:06:42.898Z,17.70
2018-06-21T16:09:13.718Z,18.00
2018-06-21T16:11:45.661Z,18.20
2018-06-21T16:14:19.470Z,18.40
2018-06-21T16:16:50.050Z,18.50
2018-06-21T16:19:21.237Z,18.60
2018-06-21T16:21:52.353Z,18.70
2018-06-21T16:24:23.368Z,18.70
2018-06-21T16:26:54.270Z,18.70
2018-06-21T16:29:24.838Z,18.60
2018-06-21T16:31:55.650Z,18.50
2018-06-21T16:34:26.657Z,18.20
2018-06-21T16:36:57.255Z,17.80
2018-06-21T16:39:27.633Z,17.60
2018-06-21T16:41:58.390Z,17.50
2018-06-21T16:44:28.978Z,17.30
2018-06-21T16:46:59.858Z,17.10
2018-06-21T16:49:30.474Z,17.00
2018-06-21T16:52:01.009Z,17.00
2018-06-21T16:54:32.382Z,17.30
2018-06-21T16:57:04.367Z,17.50
2018-06-21T16:59:35.500Z,17.50
2018-06-21T17:02:06.449Z,17.60
2018-06-21T17:04:36.905Z,17.80
2018-06-21T17:07:07.703Z,17.80
2018-06-21T17:09:38.493Z,17.80
2018-06-21T17:12:10.580Z,17.50
2018-06-21T17:14:41.289Z,17.30
2018-06-21T17:17:12.285Z,17.10
2018-06-21T17:19:42.761Z,17.10
2018-06-21T17:22:13.483Z,17.10
2018-06-21T17:24:44.874Z,17.10
2018-06-21T17:27:15.420Z,17.10
2018-06-21T17:29:46.109Z,16.90
2018-06-21T17:32:16.735Z,16.80
2018-06-21T17:37:17.263Z,16.60
2018-06-21T17:39:48.676Z,16.50
2018-06-21T17:42:19.696Z,16.50
2018-06-21T17:44:50.325Z,16.50
2018-06-21T17:49:51.557Z,16.10
2018-06-21T17:52:23.623Z,16.00
2018-06-21T17:54:54.587Z,16.10
2018-06-21T17:57:25.166Z,15.90
2018-06-21T17:59:55.860Z,15.70
2018-06-21T18:02:26.501Z,15.60
2018-06-21T18:04:57.124Z,15.60
2018-06-21T18:07:27.840Z,15.70
2018-06-21T18:09:58.449Z,15.60
2018-06-21T18:12:30.778Z,15.70
2018-06-21T18:15:01.507Z,15.70
2018-06-21T18:17:32.042Z,15.60
2018-06-21T18:20:03.094Z,15.50
2018-06-21T18:22:34.197Z,15.40
2018-06-21T18:25:05.217Z,15.30
2018-06-21T18:27:37.475Z,15.20
2018-06-21T18:30:08.726Z,15.10
2018-06-21T18:32:40.434Z,15.10
2018-06-21T18:35:12.226Z,15.10
2018-06-21T18:37:43.950Z,15.10
2018-06-21T18:40:16.133Z,15.10
2018-06-21T18:42:47.898Z,15.00
2018-06-21T18:47:52.018Z,14.90
2018-06-21T18:50:30.236Z,14.90
2018-06-21T18:53:01.570Z,14.80
2018-06-21T18:55:33.960Z,14.70
2018-06-21T18:58:05.857Z,14.70
2018-06-21T19:00:37.490Z,14.50
2018-06-21T19:05:41.611Z,14.50
2018-06-21T19:08:18.444Z,14.30
2018-06-21T19:10:55.518Z,13.90
2018-06-21T19:13:26.303Z,13.60
2018-06-21T19:15:59.282Z,13.70
2018-06-21T19:18:30.364Z,13.60
2018-06-21T19:21:01.878Z,13.60
2018-06-21T19:23:32.645Z,13.50
2018-06-21T19:26:06.338Z,13.40
2018-06-21T19:28:38.551Z,13.40
2018-06-21T19:31:09.919Z,13.40
2018-06-21T19:33:40.589Z,13.30
2018-06-21T19:36:11.179Z,13.30
2018-06-21T19:38:41.829Z,13.30
2018-06-21T19:41:12.717Z,13.20
2018-06-21T19:43:43.338Z,13.10
2018-06-21T19:46:14.223Z,13.10
2018-06-21T19:48:45.053Z,13.00
2018-06-21T19:51:15.481Z,13.00
2018-06-21T19:53:46.246Z,13.00
2018-06-21T19:56:16.904Z,13.00
2018-06-21T20:01:18.213Z,13.00
2018-06-21T20:03:48.719Z,12.90
2018-06-21T20:06:19.761Z,12.80
2018-06-21T20:08:50.237Z,12.90
2018-06-21T20:11:37.308Z,13.00
2018-06-21T20:14:07.931Z,13.00
2018-06-21T20:16:38.849Z,12.90
2018-06-21T20:19:18.497Z,12.90
2018-06-21T20:21:49.225Z,12.80
2018-06-21T20:24:21.219Z,12.70
2018-06-21T20:26:52.492Z,12.70
2018-06-21T20:29:23.400Z,12.60
2018-06-21T20:31:54.046Z,12.60
2018-06-21T20:34:24.846Z,12.60
2018-06-21T20:36:55.617Z,12.60
2018-06-21T20:39:26.214Z,12.60
2018-06-21T20:41:56.978Z,12.60
2018-06-21T20:44:27.713Z,12.50
2018-06-21T20:46:58.361Z,12.40
2018-06-21T20:49:29.041Z,12.20
2018-06-21T20:54:47.287Z,12.20
2018-06-21T20:57:18.106Z,12.20
2018-06-21T20:59:49.342Z,12.20
2018-06-21T21:02:19.914Z,12.20
2018-06-21T21:05:12.639Z,12.10
2018-06-21T21:07:43.973Z,12.00
2018-06-21T21:10:15.893Z,11.90
2018-06-21T21:12:46.853Z,11.90
2018-06-21T21:15:17.542Z,11.90
2018-06-21T21:17:48.352Z,11.90
2018-06-21T21:20:18.905Z,11.80
2018-06-21T21:22:49.976Z,11.80
2018-06-21T21:25:20.702Z,11.80
2018-06-21T21:27:51.625Z,11.80
2018-06-21T21:30:22.090Z,11.70
2018-06-21T21:32:52.889Z,11.60
2018-06-21T21:35:36.440Z,11.60
2018-06-21T21:38:07.978Z,11.60
2018-06-21T21:40:39.010Z,11.60
2018-06-21T21:43:10.064Z,11.60
2018-06-21T21:45:41.009Z,11.60
2018-06-21T21:48:11.450Z,11.60
2018-06-21T21:50:42.195Z,11.60
2018-06-21T21:53:13.078Z,11.70
2018-06-21T21:55:43.714Z,11.70
2018-06-21T21:58:14.952Z,11.70
2018-06-21T22:00:48.640Z,11.70
2018-06-21T22:03:19.269Z,11.80
2018-06-21T22:05:55.021Z,11.80
2018-06-21T22:08:25.869Z,11.80
2018-06-21T22:10:56.345Z,11.80
2018-06-21T22:13:27.062Z,11.80
2018-06-21T22:15:58.114Z,11.80
2018-06-21T22:18:29.723Z,11.80
2018-06-21T22:21:00.366Z,11.90
2018-06-21T22:23:31.374Z,11.80
2018-06-21T22:26:02.070Z,11.80
2018-06-21T22:28:32.661Z,11.70
2018-06-21T22:31:03.856Z,11.70
2018-06-21T22:33:34.969Z,11.70
2018-06-21T22:36:05.849Z,11.60
2018-06-21T22:38:37.298Z,11.50
2018-06-21T22:41:08.583Z,11.50
2018-06-21T22:43:39.500Z,11.50
2018-06-21T22:46:11.069Z,11.30
2018-06-21T22:48:42.314Z,11.30
2018-06-21T22:51:13.245Z,11.20
2018-06-21T22:53:44.293Z,11.30
2018-06-21T22:56:14.832Z,11.20
2018-06-21T22:58:45.545Z,11.10
2018-06-21T23:01:17.277Z,11.10
2018-06-21T23:03:48.073Z,11.10
2018-06-21T23:06:19.381Z,11.20
2018-06-21T23:08:50.067Z,11.20
2018-06-21T23:11:21.078Z,11.20
2018-06-21T23:13:53.619Z,11.20
2018-06-21T23:16:24.697Z,11.30
2018-06-21T23:19:06.257Z,11.30
2018-06-21T23:21:37.730Z,11.30
2018-06-21T23:24:08.590Z,11.20
2018-06-21T23:26:39.765Z,11.10
2018-06-21T23:29:10.744Z,11.10
2018-06-21T23:31:41.449Z,11.20
2018-06-21T23:34:12.074Z,11.10
2018-06-21T23:36:43.208Z,11.00
2018-06-21T23:39:13.738Z,11.10
2018-06-21T23:41:44.914Z,11.10
2018-06-21T23:44:15.862Z,11.00
2018-06-21T23:46:48.642Z,11.00
2018-06-21T23:49:20.175Z,11.00
2018-06-21T23:51:50.680Z,11.10
2018-06-21T23:54:21.429Z,11.00
2018-06-21T23:56:52.346Z,11.00
2018-06-21T23:59:23.096Z,11.00
